Amc Networks Inc-A (AMCX) Latest Bloomsberg Price


Mffais Ranking #49 Overall / #1 Industry
Industry: Entertainment Content

Number of Companies: 242 (Ranking #668 Overall/#8 Industry)
Inflow: $ 318,524 (K) (Ranking #377 Overall/#5 Industry)
Outflow: $ -154,335 (K)
Mffais Flow: $ 164,189 (K) (Ranking #49 Overall/#1 Industry)


Receive a FREE weekly executive review of stocks moving into the top 10, taking the top industy spot or moving up within their industry. Sent directly to your Inbox every Saturday. Sign up today and get last week's review immediately sent to you.

We value and respect your privacy. Please read our Terms and Conditions which states our firm commitment to your privacy. Your email address will not be shared with a third party, nor will it be sold or used for purposes other than subscription for the weekly review.

Owner CPOR Shares Action Qty Chg Invested (K) Total Current Value (K)
Thompson Siegel Walmsley Llc 2016-09-30 1,805,539 Added More 1,334,078 $ 74,681 $ 101,074
Shapiro Capital Management Llc 2016-09-30 1,333,575 New Holding 1,333,575 $ 74,653 $ 74,653
Oasis Management Co Ltd 2016-09-30 900,000 New Holding 900,000 $ 50,382 $ 50,382
Hs Management Partners Llc 2016-09-30 2,005,615 Added More 258,825 $ 14,489 $ 112,274
Horizon Kinetics Llc 2016-09-30 233,936 Added More 211,710 $ 11,851 $ 13,095
Marshall Wace Llp 2016-09-30 223,789 Added More 163,408 $ 9,147 $ 12,527
Highbridge Capital Management Llc 2016-09-30 405,732 Added More 148,411 $ 8,308 $ 22,712
Lord Abbett Co Llc 2016-09-30 919,863 Added More 100,515 $ 5,626 $ 51,493
Pdt Partners Llc 2016-09-30 97,201 New Holding 97,201 $ 5,441 $ 5,441
Polar Asset Management Partners Inc 2016-09-30 253,603 Added More 93,499 $ 5,234 $ 14,196
Gotham Asset Management Llc 2016-09-30 279,175 Added More 87,346 $ 4,889 $ 15,628
S Muoio Co Llc 2016-09-30 82,688 Added More 74,000 $ 4,142 $ 4,628
Fort L P 2016-09-30 64,462 New Holding 64,462 $ 3,608 $ 3,608
Kynikos Associates Lp 2016-09-30 64,291 New Holding 64,291 $ 3,599 $ 3,599
Everpoint Asset Management Llc 2016-09-30 57,000 New Holding 57,000 $ 3,190 $ 3,190
Emerald Acquisition Ltd 2016-09-30 296,117 Added More 56,984 $ 3,189 $ 16,576
Cornerstone Capital Management Holdings Llc 2016-09-30 48,715 New Holding 48,715 $ 2,727 $ 2,727
State Of New Jersey Common Pension Fund D 2016-09-30 90,000 Added More 40,000 $ 2,239 $ 5,038
Northern Trust Corp 2016-09-30 526,654 Added More 35,084 $ 1,964 $ 29,482
Jacobs Levy Equity Management Inc 2016-09-30 214,917 Added More 33,770 $ 1,890 $ 12,031
Kbc Group Nv 2016-09-30 117,002 Added More 31,398 $ 1,757 $ 6,549
Dupont Capital Management Corp 2016-09-30 63,095 Added More 28,013 $ 1,568 $ 3,532
Stillwater Investment Management L P 2016-09-30 24,800 New Holding 24,800 $ 1,388 $ 1,388
Seven Eight Capital Llc 2016-09-30 27,200 Added More 24,000 $ 1,343 $ 1,522
Engineers Gate Manager Lp 2016-09-30 85,614 Added More 20,924 $ 1,171 $ 4,792
Trexquant Investment Lp 2016-09-30 19,100 New Holding 19,100 $ 1,069 $ 1,069
Cubist Systematic Strategies Llc 2016-09-30 21,073 Added More 17,706 $ 991 $ 1,179
Evercore Trust Company N A 2016-09-30 17,651 New Holding 17,651 $ 988 $ 988
Alphaone Investment Services Llc 2016-09-30 17,500 New Holding 17,500 $ 979 $ 979
Cipher Capital Lp 2016-09-30 29,954 Added More 16,025 $ 897 $ 1,676
Ramsey Quantitative Systems 2016-09-30 15,679 New Holding 15,679 $ 877 $ 877
Gabelli Securities Inc 2016-09-30 52,500 Added More 15,000 $ 839 $ 2,938
Simplex Trading Llc 2016-09-30 14,172 New Holding 14,172 $ 793 $ 793
Pinnacle Associates Ltd 2016-09-30 841,826 Added More 13,555 $ 758 $ 47,125
Zebra Capital Management Llc 2016-09-30 11,589 New Holding 11,589 $ 648 $ 648
Bremer Trust National Association 2016-09-30 11,074 New Holding 11,074 $ 619 $ 619
Point72 Asia Hong Kong Ltd 2016-09-30 10,951 Added More 10,870 $ 608 $ 613
Dynamic Technology Lab Private Ltd 2016-09-30 15,340 Added More 10,314 $ 577 $ 858
Freestone Capital Holdings Llc 2016-09-30 10,129 New Holding 10,129 $ 567 $ 567
Fox Run Management L L C 2016-09-30 9,400 New Holding 9,400 $ 526 $ 526
Clark Estates Inc Ny 2016-09-30 49,000 Added More 9,000 $ 503 $ 2,743
Alps Advisors Inc 2016-09-30 7,955 New Holding 7,955 $ 445 $ 445
Parametrica Management Ltd 2016-09-30 7,200 New Holding 7,200 $ 403 $ 403
Blackrock Inc 2016-09-30 40,715 Added More 7,157 $ 400 $ 2,279
South Dakota Investment Council 2016-09-30 126,882 Added More 7,000 $ 391 $ 7,102
Dimensional Fund Advisors Lp 2016-09-30 275,183 Added More 6,995 $ 391 $ 15,404
Deere Co 2016-09-30 25,964 Added More 6,901 $ 386 $ 1,453
Raymond James Financial Services Advisors Inc 2016-09-30 6,012 New Holding 6,012 $ 336 $ 336
Laurion Capital Management Lp 2016-09-30 5,700 New Holding 5,700 $ 319 $ 319
Hightower Advisors Llc 2016-09-30 5,555 New Holding 5,555 $ 310 $ 310
Oakbrook Investments Llc 2016-09-30 5,550 New Holding 5,550 $ 310 $ 310
Baker Ellis Asset Management Llc 2016-09-30 5,200 New Holding 5,200 $ 291 $ 291
Boothbay Fund Management Llc 2016-09-30 5,002 New Holding 5,002 $ 280 $ 280
Endicott Management Co 2016-09-30 5,000 New Holding 5,000 $ 279 $ 279
Clear Harbor Asset Management Llc 2016-09-30 5,000 New Holding 5,000 $ 279 $ 279
Greenwood Capital Associates Llc 2016-09-30 4,925 New Holding 4,925 $ 275 $ 275
Comerica Bank 2016-09-30 47,257 Added More 4,810 $ 269 $ 2,645
World Asset Management Inc 2016-09-30 3,910 New Holding 3,910 $ 218 $ 218
Rhumbline Advisers 2016-09-30 115,471 Added More 3,703 $ 207 $ 6,464
Delphi Management Inc Ma 2016-09-30 39,140 Added More 3,598 $ 201 $ 2,191
Quantbot Technologies Lp 2016-09-30 10,762 Added More 3,398 $ 190 $ 602
Westwood Holdings Group Inc 2016-09-30 537,091 Added More 3,159 $ 176 $ 30,066
Gabelli Funds Llc 2016-09-30 815,600 Added More 3,000 $ 167 $ 45,657
Ifp Advisors Inc 2016-09-30 12,561 Added More 2,773 $ 155 $ 703
Raymond James Associates 2016-09-30 188,627 Added More 2,533 $ 141 $ 10,559
Aperio Group Llc 2016-09-30 25,483 Added More 2,080 $ 116 $ 1,426
Nisa Investment Advisors Llc 2016-09-30 8,982 Added More 2,000 $ 111 $ 502
Creative Planning 2016-09-30 11,831 Added More 1,938 $ 108 $ 662
Springbok Capital Management Llc 2016-09-30 2,000 Added More 1,226 $ 68 $ 111
California State Teachers Retirement System 2016-09-30 127,098 Added More 1,000 $ 55 $ 7,114
Profund Advisors Llc 2016-09-30 8,418 Added More 971 $ 54 $ 471
Bluemountain Capital Management Llc 2016-09-30 11,387 Added More 776 $ 43 $ 637
Princeton Alpha Management Lp 2016-09-30 5,247 Added More 768 $ 42 $ 293
Kcg Holdings Inc 2016-09-30 9,869 Added More 732 $ 40 $ 552
Thrivent Financial For Lutherans 2016-09-30 9,437 Added More 710 $ 39 $ 528
Oregon Public Employees Retirement Fund 2016-09-30 21,472 Added More 622 $ 34 $ 1,202
Bb T Securities Llc 2016-09-30 4,252 Added More 473 $ 26 $ 238
Pacer Advisors Inc 2016-09-30 6,225 Added More 426 $ 23 $ 348
Capital One National Association 2016-09-30 8,202 Added More 421 $ 23 $ 459
Legal General Group Plc 2016-09-30 9,528 Added More 371 $ 20 $ 533
Ladenburg Thalmann Financial Services Inc 2016-09-30 1,394 Added More 309 $ 17 $ 78
Zurcher Kantonalbank Zurich Cantonalbank 2016-09-30 1,983 Added More 248 $ 13 $ 111
Quadrant Capital Group Llc 2016-09-30 466 Added More 242 $ 13 $ 26
Tower Research Capital Llc Trc 2016-09-30 1,927 Added More 202 $ 11 $ 107
Liberty Mutual Group Asset Management Inc 2016-09-30 26,629 Added More 188 $ 10 $ 1,490
Ls Investment Advisors Llc 2016-09-30 3,950 Added More 187 $ 10 $ 221
Cable Hill Partners Llc 2016-09-30 188 Added More 180 $ 10 $ 10
Hall Laurie J Trustee 2016-06-30 240 Added More 160 $ 9 $ 14
Sei Investments Co 2016-09-30 1,310 Added More 168 $ 9 $ 73
Peddock Capital Advisors Llc 2016-09-30 154 New Holding 154 $ 8 $ 8
Hanson Mcclain Inc 2016-06-30 120 New Holding 120 $ 7 $ 7
Concannon Wealth Management Llc 2016-09-30 100 New Holding 100 $ 5 $ 5
Next Financial Group Inc 2016-09-30 164 Added More 82 $ 4 $ 9
First Citizens Bank Trust Co 2016-09-30 4,385 Added More 74 $ 4 $ 245
Condor Capital Management 2016-09-30 10,610 Added More 73 $ 4 $ 593
Weaver C Barksdale Associates Inc 2016-09-30 256 Added More 64 $ 3 $ 14
Kanaly Trust Co 2016-09-30 44 New Holding 44 $ 2 $ 2
Arrowpoint Asset Management Llc 2016-09-30 23 New Holding 23 $ 1 $ 1
Group One Trading L P 2016-09-30 6 New Holding 6 $ 0 $ 0
Financial Engines Advisors L L C 2016-09-30 78 Added More 3 $ 0 $ 4
Prudential Plc 2016-09-30 120,000 No Change 0 $ 0 $ 6,717
Integrated Investment Consultants Llc 2016-09-30 83 No Change 0 $ 0 $ 4
Allsquare Wealth Management Llc 2016-09-30 134 No Change 0 $ 0 $ 7
Investec Asset Management North America Inc 2016-09-30 12,899 No Change 0 $ 0 $ 722
Benjamin F Edwards Company Inc 2016-09-30 2,426 No Change 0 $ 0 $ 135
Alpha Windward Llc 2016-09-30 461 No Change 0 $ 0 $ 25
Parkside Financial Bank Trust 2016-09-30 7,261 No Change 0 $ 0 $ 406
Markston International Llc 2016-09-30 5,325 No Change 0 $ 0 $ 298
Johnson Financial Group Inc 2016-09-30 89 No Change 0 $ 0 $ 4
Fifth Third Bancorp 2016-09-30 236 No Change 0 $ 0 $ 13
Rockefeller Financial Services Inc 2016-09-30 6,975 No Change 0 $ 0 $ 390
Johnson Investment Counsel Inc 2016-09-30 7,851 No Change 0 $ 0 $ 439
Nuveen Asset Management Llc 2016-09-30 23,975 No Change 0 $ 0 $ 1,342
Sentinel Trust Co Lba 2016-09-30 11,347 No Change 0 $ 0 $ 635
First Interstate Bank 2016-09-30 39 No Change 0 $ 0 $ 2
Jacobi Capital Management Llc 2016-09-30 13 No Change 0 $ 0 $ 0
Wfg Advisors Lp 2016-09-30 24 No Change 0 $ 0 $ 1
Consolidated Investment Group Llc 2016-09-30 31,375 No Change 0 $ 0 $ 1,756
Krilogy Financial Llc 2016-09-30 1,757 No Change 0 $ 0 $ 98
Gargoyle Investment Advisor L L C 2016-09-30 9,219 No Change 0 $ 0 $ 516
I G Investment Management Ltd 2016-09-30 1,780 No Change 0 $ 0 $ 99
Utah Retirement Systems 2016-09-30 10,816 No Change 0 $ 0 $ 605
Thompson Davis Co Inc 2016-09-30 56 No Change 0 $ 0 $ 3
State Of Tennessee Treasury Department 2016-09-30 10,000 No Change 0 $ 0 $ 559
Cwm Llc 2016-09-30 2 No Change 0 $ 0 $ 0
Advisory Services Network Llc 2016-09-30 14 No Change 0 $ 0 $ 0
Carroll Financial Associates Inc 2016-09-30 58 No Change 0 $ 0 $ 3
Alexandria Capital Llc 2016-09-30 37 No Change 0 $ 0 $ 2
First Manhattan Co 2016-09-30 15 No Change 0 $ 0 $ 0
Mosaic Family Wealth Llc 2016-09-30 670 Sold Some -17 $ -0 $ 37
Plante Moran Financial Advisors Llc 2016-09-30 8 Sold Some -19 $ -1 $ 0
Zions Bancorporation 2016-09-30 7 Sold Some -20 $ -1 $ 0
Washington Trust Bank 2016-09-30 10 Sold Some -20 $ -1 $ 0
Northwestern Mutual Wealth Management Co 2016-09-30 674 Sold Some -21 $ -1 $ 37
Howe Rusling Inc 2016-09-30 0 Sold All -40 $ -2 $ 0
Bronfman E L Rothschild L P 2016-09-30 21 Sold Some -41 $ -2 $ 1
Ftb Advisors Inc 2016-09-30 222 Sold Some -55 $ -3 $ 12
Invictus Rg 2016-09-30 0 Sold All -56 $ -3 $ 0
Cornerstone Advisors Inc 2016-09-30 75 Sold Some -75 $ -4 $ 4
Boyar Asset Management Inc 2016-09-30 11,515 Sold Some -100 $ -5 $ 644
Davenport Co Llc 2016-09-30 18,700 Sold Some -100 $ -5 $ 1,046
Gemmer Asset Management Llc 2016-09-30 0 Sold All -103 $ -5 $ 0
Advantus Capital Management Inc 2016-09-30 7,292 Sold Some -118 $ -6 $ 408
Msi Financial Services Inc 2016-09-30 819 Sold Some -120 $ -6 $ 45
First Republic Investment Management Inc 2016-09-30 5,252 Sold Some -128 $ -7 $ 294
Pnc Financial Services Group Inc 2016-09-30 6,048 Sold Some -154 $ -8 $ 338
Mason Street Advisors Llc 2016-09-30 27,722 Sold Some -183 $ -10 $ 1,551
Northwestern Mutual Investment Management Company Llc 2016-09-30 10,318 Sold Some -246 $ -13 $ 577
M T Bank Corp 2016-09-30 4,969 Sold Some -315 $ -17 $ 278
Bessemer Group Inc 2016-09-30 46 Sold Some -316 $ -17 $ 2
State Treasurer State Of Michigan 2016-09-30 24,150 Sold Some -400 $ -22 $ 1,351
Proshare Advisors Llc 2016-09-30 4,993 Sold Some -416 $ -23 $ 279
Tudor Investment Corp Et Al 2016-09-30 35,504 Sold Some -437 $ -24 $ 1,987
Redwood Investments Llc 2016-09-30 0 Sold All -501 $ -28 $ 0
Van Eck Associates Corp 2016-09-30 0 Sold All -581 $ -32 $ 0
Arizona State Retirement System 2016-09-30 26,586 Sold Some -700 $ -39 $ 1,488
Lorber David A 2016-09-30 0 Sold All -769 $ -43 $ 0
Advisor Group Inc 2016-09-30 1,208 Sold Some -809 $ -45 $ 67
Verition Fund Management Llc 2016-09-30 4,031 Sold Some -1,008 $ -56 $ 225
Checchi Capital Advisers Llc 2016-09-30 0 Sold All -1,010 $ -56 $ 0
Texas Permanent School Fund 2016-09-30 45,643 Sold Some -1,144 $ -64 $ 2,555
Advisors Asset Management Inc 2016-09-30 6,241 Sold Some -1,231 $ -68 $ 349
Swiss National Bank 2016-09-30 99,000 Sold Some -1,400 $ -78 $ 5,542
Chicago Partners Investment Group Llc 2016-09-30 2,149 Sold Some -1,407 $ -78 $ 120
Amp Capital Investors Ltd 2016-09-30 13,724 Sold Some -1,559 $ -87 $ 768
Stifel Financial Corp 2016-09-30 17,663 Sold Some -1,729 $ -96 $ 988
Kornitzer Capital Management Inc Ks 2016-09-30 135,660 Sold Some -1,930 $ -108 $ 7,594
Teacher Retirement System Of Texas 2016-09-30 6,547 Sold Some -1,982 $ -110 $ 366
Acrospire Investment Management Llc 2016-09-30 1,200 Sold Some -2,000 $ -111 $ 67
Us Bancorp De 2016-09-30 4,227 Sold Some -2,053 $ -114 $ 236
Middleton Co Inc Ma 2016-09-30 9,201 Sold Some -2,270 $ -127 $ 515
American International Group Inc 2016-09-30 115,338 Sold Some -2,632 $ -147 $ 6,456
First Quadrant L P Ca 2016-09-30 115,784 Sold Some -2,866 $ -160 $ 6,481
Kennedy Capital Management Inc 2016-09-30 58,781 Sold Some -2,983 $ -166 $ 3,290
Cutler Group Lp 2016-09-30 578 Sold Some -3,018 $ -168 $ 32
Private Wealth Partners Llc 2016-09-30 18,950 Sold Some -3,200 $ -179 $ 1,060
Blackrock Investment Management Llc 2016-09-30 170,085 Sold Some -3,668 $ -205 $ 9,521
Wrapmanager Inc 2016-09-30 0 Sold All -3,711 $ -207 $ 0
Ibm Retirement Fund 2016-09-30 5,752 Sold Some -3,781 $ -211 $ 321
Parametric Portfolio Associates Llc 2016-09-30 63,089 Sold Some -3,877 $ -217 $ 3,531
Quantitative Systematic Strategies Llc 2016-09-30 0 Sold All -3,927 $ -219 $ 0
Tealwood Asset Management Inc 2016-09-30 42,411 Sold Some -3,999 $ -223 $ 2,374
United Capital Financial Advisers Llc 2016-09-30 0 Sold All -4,027 $ -225 $ 0
Hsbc Holdings Plc 2016-09-30 0 Sold All -4,122 $ -230 $ 0
Qcm Cayman Ltd 2016-09-30 0 Sold All -4,695 $ -262 $ 0
New York State Teachers Retirement System 2016-09-30 110,100 Sold Some -4,800 $ -268 $ 6,163
Yorktown Management Research Co Inc 2016-09-30 0 Sold All -4,800 $ -268 $ 0
Gsa Capital Partners Llp 2016-09-30 10,479 Sold Some -4,853 $ -271 $ 586
Integral Derivatives Llc 2016-09-30 0 Sold All -5,000 $ -279 $ 0
Reliance Trust Co Of Delaware 2016-09-30 0 Sold All -5,145 $ -288 $ 0
Bridgewater Associates Lp 2016-09-30 16,500 Sold Some -5,228 $ -292 $ 923
Shelton Capital Management 2016-09-30 0 Sold All -5,664 $ -317 $ 0
Pacad Investment Ltd 2016-09-30 0 Sold All -5,900 $ -330 $ 0
Mutual Of America Capital Management Llc 2016-09-30 44,294 Sold Some -5,926 $ -331 $ 2,479
Walleye Trading Llc 2016-09-30 4,343 Sold Some -5,957 $ -333 $ 243
Pitcairn Co 2016-09-30 0 Sold All -6,041 $ -338 $ 0
Ellington Management Group Llc 2016-09-30 0 Sold All -6,300 $ -352 $ 0
Envestnet Asset Management Inc 2016-09-30 7,329 Sold Some -6,959 $ -389 $ 410
Atlanta Capital Management Co L L C 2016-09-30 242,752 Sold Some -7,894 $ -441 $ 13,589
Picton Mahoney Asset Management 2016-09-30 0 Sold All -8,300 $ -464 $ 0
Bayesian Capital Management Lp 2016-09-30 0 Sold All -8,372 $ -468 $ 0
Systematic Financial Management Lp 2016-09-30 73,923 Sold Some -8,484 $ -474 $ 4,138
Her Majesty The Queen In Right Of The Province Of Alberta As 2016-09-30 0 Sold All -8,700 $ -487 $ 0
Telemus Capital Llc 2016-09-30 50,391 Sold Some -9,594 $ -537 $ 2,820
Babson Capital Management Llc 2016-09-30 9,700 Sold Some -10,000 $ -559 $ 543
Robeco Institutional Asset Management B V 2016-09-30 0 Sold All -10,162 $ -568 $ 0
Chicago Equity Partners Llc 2016-09-30 0 Sold All -10,260 $ -574 $ 0
American National Bank 2016-09-30 25,631 Sold Some -12,009 $ -672 $ 1,434
Bbt Capital Management Llc 2016-09-30 30,000 Sold Some -12,500 $ -699 $ 1,679
Stevens Capital Management Lp 2016-09-30 44,875 Sold Some -12,919 $ -723 $ 2,512
Carnegie Capital Asset Management Llc 2016-09-30 0 Sold All -13,145 $ -735 $ 0
Sg Americas Securities Llc 2016-09-30 7,554 Sold Some -13,235 $ -740 $ 422
Cibc World Markets Corp 2016-09-30 0 Sold All -13,500 $ -755 $ 0
Frontfour Capital Group Llc 2016-09-30 0 Sold All -14,231 $ -796 $ 0
Fort Washington Investment Advisors Inc Oh 2016-09-30 0 Sold All -14,940 $ -836 $ 0
Hutchin Hill Capital Lp 2016-09-30 0 Sold All -16,700 $ -934 $ 0
Cantab Capital Partners Llp 2016-09-30 0 Sold All -16,886 $ -945 $ 0
Wealth Enhancement Advisory Services Llc 2016-09-30 0 Sold All -19,781 $ -1,107 $ 0
Ngam Advisors L P 2016-09-30 27,331 Sold Some -22,731 $ -1,272 $ 1,529
Gamco Investors Inc Et Al 2016-09-30 1,272,959 Sold Some -23,032 $ -1,289 $ 71,260
Spot Trading L L C 2016-09-30 0 Sold All -23,563 $ -1,319 $ 0
Nationwide Fund Advisors 2016-09-30 253,260 Sold Some -25,826 $ -1,445 $ 14,177
Panagora Asset Management Inc 2016-09-30 152,685 Sold Some -28,614 $ -1,601 $ 8,547
Zacks Investment Management 2016-09-30 0 Sold All -31,797 $ -1,779 $ 0
Oxbow Advisors Llc 2016-09-30 0 Sold All -33,240 $ -1,860 $ 0
Retirement Systems Of Alabama 2016-09-30 154,290 Sold Some -40,843 $ -2,286 $ 8,637
Columbia Partners L L C Investment Management 2016-09-30 45,054 Sold Some -41,903 $ -2,345 $ 2,522
Bokf Na 2016-09-30 0 Sold All -45,407 $ -2,541 $ 0
A R T Advisors Llc 2016-09-30 10,400 Sold Some -51,398 $ -2,877 $ 582
Winton Capital Group Ltd 2016-09-30 142,056 Sold Some -68,152 $ -3,815 $ 7,952
Capstone Investment Advisors Llc 2016-09-30 0 Sold All -69,905 $ -3,913 $ 0
Folger Hill Asset Management Lp 2016-09-30 0 Sold All -75,000 $ -4,198 $ 0
Clark Capital Management Group Inc 2016-09-30 0 Sold All -76,771 $ -4,297 $ 0
Clinton Group Inc 2016-09-30 106,229 Sold Some -90,522 $ -5,067 $ 5,946
Guggenheim Capital Llc 2016-09-30 170,178 Sold Some -128,015 $ -7,166 $ 9,526
Boston Advisors Llc 2016-09-30 0 Sold All -157,855 $ -8,836 $ 0
New York State Common Retirement Fund 2016-09-30 129,100 Sold Some -157,964 $ -8,842 $ 7,227
Teachers Retirement System Of The State Of Kentucky 2016-09-30 14,400 Sold Some -162,500 $ -9,096 $ 806
Brandywine Global Investment Management Llc 2016-09-30 0 Sold All -173,850 $ -9,732 $ 0
Teachers Advisors Inc 2016-09-30 214,205 Sold Some -244,947 $ -13,712 $ 11,991
Todd Asset Management Llc 2016-09-30 0 Sold All -275,129 $ -15,401 $ 0
Piedmont Investment Advisors Llc 2016-09-30 0 Sold All -315,733 $ -17,674 $ 0